sensor_id;sensor_type;location;lat;lon;timestamp;temperature;humidity
23544;DHT22;11950;51.230;4.012;2024-02-26T00:00:01;10.00;99.90
23544;DHT22;11950;51.230;4.012;2024-02-26T00:02:27;10.10;99.90
23544;DHT22;11950;51.230;4.012;2024-02-26T00:04:53;10.00;99.90
23544;DHT22;11950;51.230;4.012;2024-02-26T00:07:20;10.00;99.90
23544;DHT22;11950;51.230;4.012;2024-02-26T00:09:46;10.00;99.90
23544;DHT22;11950;51.230;4.012;2024-02-26T00:12:12;10.00;99.90
23544;DHT22;11950;51.230;4.012;2024-02-26T00:14:38;10.00;99.90
23544;DHT22;11950;51.230;4.012;2024-02-26T00:17:04;10.00;99.90
23544;DHT22;11950;51.230;4.012;2024-02-26T00:19:31;10.00;99.90
23544;DHT22;11950;51.230;4.012;2024-02-26T00:21:57;10.00;99.90
23544;DHT22;11950;51.230;4.012;2024-02-26T00:24:23;9.90;99.90
23544;DHT22;11950;51.230;4.012;2024-02-26T00:26:49;9.90;99.90
23544;DHT22;11950;51.230;4.012;2024-02-26T00:29:19;9.90;99.90
23544;DHT22;11950;51.230;4.012;2024-02-26T00:31:45;9.90;99.90
23544;DHT22;11950;51.230;4.012;2024-02-26T00:34:12;9.90;99.90
23544;DHT22;11950;51.230;4.012;2024-02-26T00:36:38;9.80;99.90
23544;DHT22;11950;51.230;4.012;2024-02-26T00:39:04;9.80;99.90
23544;DHT22;11950;51.230;4.012;2024-02-26T00:41:30;9.70;99.90
23544;DHT22;11950;51.230;4.012;2024-02-26T00:43:57;9.70;99.90
23544;DHT22;11950;51.230;4.012;2024-02-26T00:46:23;9.70;99.90
23544;DHT22;11950;51.230;4.012;2024-02-26T00:48:49;9.60;99.90
23544;DHT22;11950;51.230;4.012;2024-02-26T00:51:15;9.70;99.90
23544;DHT22;11950;51.230;4.012;2024-02-26T00:53:41;9.60;99.90
23544;DHT22;11950;51.230;4.012;2024-02-26T00:56:08;9.60;99.90
23544;DHT22;11950;51.230;4.012;2024-02-26T00:58:34;9.60;99.90
23544;DHT22;11950;51.230;4.012;2024-02-26T01:01:00;9.60;99.90
23544;DHT22;11950;51.230;4.012;2024-02-26T01:03:26;9.60;99.90
23544;DHT22;11950;51.230;4.012;2024-02-26T01:05:53;9.60;99.90
23544;DHT22;11950;51.230;4.012;2024-02-26T01:08:19;9.60;99.90
23544;DHT22;11950;51.230;4.012;2024-02-26T01:10:45;9.60;99.90
23544;DHT22;11950;51.230;4.012;2024-02-26T01:13:11;9.60;99.90
23544;DHT22;11950;51.230;4.012;2024-02-26T01:15:38;9.60;99.90
23544;DHT22;11950;51.230;4.012;2024-02-26T01:18:04;9.60;99.90
23544;DHT22;11950;51.230;4.012;2024-02-26T01:20:30;9.60;99.90
23544;DHT22;11950;51.230;4.012;2024-02-26T01:22:56;9.50;99.90
23544;DHT22;11950;51.230;4.012;2024-02-26T01:25:23;9.50;99.90
23544;DHT22;11950;51.230;4.012;2024-02-26T01:27:49;9.50;99.90
23544;DHT22;11950;51.230;4.012;2024-02-26T01:30:15;9.50;99.90
23544;DHT22;11950;51.230;4.012;2024-02-26T01:32:42;9.50;99.90
23544;DHT22;11950;51.230;4.012;2024-02-26T01:35:09;9.50;99.90
23544;DHT22;11950;51.230;4.012;2024-02-26T01:37:38;9.40;99.90
23544;DHT22;11950;51.230;4.012;2024-02-26T01:40:05;9.40;99.90
23544;DHT22;11950;51.230;4.012;2024-02-26T01:42:33;9.40;99.90
23544;DHT22;11950;51.230;4.012;2024-02-26T01:44:59;9.40;99.90
23544;DHT22;11950;51.230;4.012;2024-02-26T01:47:26;9.40;99.90
23544;DHT22;11950;51.230;4.012;2024-02-26T01:49:53;9.40;99.90
23544;DHT22;11950;51.230;4.012;2024-02-26T01:52:21;9.40;99.90
23544;DHT22;11950;51.230;4.012;2024-02-26T01:54:48;9.30;99.90
23544;DHT22;11950;51.230;4.012;2024-02-26T01:57:15;9.30;99.90
23544;DHT22;11950;51.230;4.012;2024-02-26T01:59:42;9.30;99.90
23544;DHT22;11950;51.230;4.012;2024-02-26T02:02:10;9.30;99.90
23544;DHT22;11950;51.230;4.012;2024-02-26T02:04:38;9.30;99.90
23544;DHT22;11950;51.230;4.012;2024-02-26T02:07:04;9.30;99.90
23544;DHT22;11950;51.230;4.012;2024-02-26T02:09:31;9.30;99.90
23544;DHT22;11950;51.230;4.012;2024-02-26T02:11:58;9.30;99.90
23544;DHT22;11950;51.230;4.012;2024-02-26T02:14:25;9.20;99.90
23544;DHT22;11950;51.230;4.012;2024-02-26T02:16:52;9.10;99.90
23544;DHT22;11950;51.230;4.012;2024-02-26T02:19:18;9.20;99.90
23544;DHT22;11950;51.230;4.012;2024-02-26T02:21:44;9.10;99.90
23544;DHT22;11950;51.230;4.012;2024-02-26T02:24:10;9.10;99.90
23544;DHT22;11950;51.230;4.012;2024-02-26T02:26:37;9.00;99.90
23544;DHT22;11950;51.230;4.012;2024-02-26T02:29:03;9.00;99.90
23544;DHT22;11950;51.230;4.012;2024-02-26T02:31:30;9.00;99.90
23544;DHT22;11950;51.230;4.012;2024-02-26T02:33:57;9.00;99.90
23544;DHT22;11950;51.230;4.012;2024-02-26T02:36:23;9.00;99.90
23544;DHT22;11950;51.230;4.012;2024-02-26T02:38:50;8.90;99.90
23544;DHT22;11950;51.230;4.012;2024-02-26T02:41:17;8.90;99.90
23544;DHT22;11950;51.230;4.012;2024-02-26T02:43:44;8.90;99.90
23544;DHT22;11950;51.230;4.012;2024-02-26T02:46:10;8.90;99.90
23544;DHT22;11950;51.230;4.012;2024-02-26T02:48:38;8.80;99.90
23544;DHT22;11950;51.230;4.012;2024-02-26T02:51:05;8.80;99.90
23544;DHT22;11950;51.230;4.012;2024-02-26T02:53:31;8.90;99.90
23544;DHT22;11950;51.230;4.012;2024-02-26T02:55:57;8.90;99.90
23544;DHT22;11950;51.230;4.012;2024-02-26T02:58:23;9.00;99.90
23544;DHT22;11950;51.230;4.012;2024-02-26T03:00:50;8.90;99.90
23544;DHT22;11950;51.230;4.012;2024-02-26T03:03:16;8.90;99.90
23544;DHT22;11950;51.230;4.012;2024-02-26T03:05:42;9.00;99.90
23544;DHT22;11950;51.230;4.012;2024-02-26T03:08:09;8.90;99.90
23544;DHT22;11950;51.230;4.012;2024-02-26T03:10:35;8.90;99.90
23544;DHT22;11950;51.230;4.012;2024-02-26T03:13:01;8.90;99.90
23544;DHT22;11950;51.230;4.012;2024-02-26T03:15:28;8.90;99.90
23544;DHT22;11950;51.230;4.012;2024-02-26T03:17:54;8.90;99.90
23544;DHT22;11950;51.230;4.012;2024-02-26T03:20:20;8.80;99.90
23544;DHT22;11950;51.230;4.012;2024-02-26T03:22:46;8.80;99.90
23544;DHT22;11950;51.230;4.012;2024-02-26T03:25:13;8.90;99.90
23544;DHT22;11950;51.230;4.012;2024-02-26T03:27:39;8.80;99.90
23544;DHT22;11950;51.230;4.012;2024-02-26T03:30:06;8.80;99.90
23544;DHT22;11950;51.230;4.012;2024-02-26T03:32:32;8.80;99.90
23544;DHT22;11950;51.230;4.012;2024-02-26T03:34:58;8.80;99.90
23544;DHT22;11950;51.230;4.012;2024-02-26T03:37:25;8.80;99.90
23544;DHT22;11950;51.230;4.012;2024-02-26T03:39:52;8.80;99.90
23544;DHT22;11950;51.230;4.012;2024-02-26T03:42:18;8.80;99.90
23544;DHT22;11950;51.230;4.012;2024-02-26T03:44:45;8.80;99.90
23544;DHT22;11950;51.230;4.012;2024-02-26T03:47:12;8.80;99.90
23544;DHT22;11950;51.230;4.012;2024-02-26T03:49:38;8.70;99.90
23544;DHT22;11950;51.230;4.012;2024-02-26T03:52:04;8.80;99.90
23544;DHT22;11950;51.230;4.012;2024-02-26T03:54:31;8.70;99.90
23544;DHT22;11950;51.230;4.012;2024-02-26T03:56:57;8.70;99.90
23544;DHT22;11950;51.230;4.012;2024-02-26T03:59:23;8.70;99.90
23544;DHT22;11950;51.230;4.012;2024-02-26T04:01:51;8.70;99.90
23544;DHT22;11950;51.230;4.012;2024-02-26T04:04:17;8.70;99.90
23544;DHT22;11950;51.230;4.012;2024-02-26T04:06:47;8.70;99.90
23544;DHT22;11950;51.230;4.012;2024-02-26T04:09:14;8.70;99.90
23544;DHT22;11950;51.230;4.012;2024-02-26T04:11:40;8.70;99.90
23544;DHT22;11950;51.230;4.012;2024-02-26T04:14:07;8.70;99.90
23544;DHT22;11950;51.230;4.012;2024-02-26T04:16:35;8.70;99.90
23544;DHT22;11950;51.230;4.012;2024-02-26T04:19:04;8.70;99.90
23544;DHT22;11950;51.230;4.012;2024-02-26T04:21:30;8.80;99.90
23544;DHT22;11950;51.230;4.012;2024-02-26T04:23:56;8.70;99.90
23544;DHT22;11950;51.230;4.012;2024-02-26T04:26:27;8.70;99.90
23544;DHT22;11950;51.230;4.012;2024-02-26T04:28:53;8.70;99.90
23544;DHT22;11950;51.230;4.012;2024-02-26T04:31:19;8.70;99.90
23544;DHT22;11950;51.230;4.012;2024-02-26T04:33:45;8.70;99.90
23544;DHT22;11950;51.230;4.012;2024-02-26T04:36:13;8.70;99.90
23544;DHT22;11950;51.230;4.012;2024-02-26T04:38:41;8.70;99.90
23544;DHT22;11950;51.230;4.012;2024-02-26T04:41:07;8.70;99.90
23544;DHT22;11950;51.230;4.012;2024-02-26T04:43:33;8.70;99.90
23544;DHT22;11950;51.230;4.012;2024-02-26T04:46:00;8.70;99.90
23544;DHT22;11950;51.230;4.012;2024-02-26T04:48:27;8.60;99.90
23544;DHT22;11950;51.230;4.012;2024-02-26T04:50:54;8.60;99.90
23544;DHT22;11950;51.230;4.012;2024-02-26T04:53:20;8.60;99.90
23544;DHT22;11950;51.230;4.012;2024-02-26T04:55:46;8.60;99.90
23544;DHT22;11950;51.230;4.012;2024-02-26T04:58:13;8.60;99.90
23544;DHT22;11950;51.230;4.012;2024-02-26T05:00:39;8.70;99.90
23544;DHT22;11950;51.230;4.012;2024-02-26T05:03:05;8.70;99.90
23544;DHT22;11950;51.230;4.012;2024-02-26T05:05:32;8.70;99.90
23544;DHT22;11950;51.230;4.012;2024-02-26T05:07:58;8.70;99.90
23544;DHT22;11950;51.230;4.012;2024-02-26T05:10:24;8.70;99.90
23544;DHT22;11950;51.230;4.012;2024-02-26T05:12:51;8.70;99.90
23544;DHT22;11950;51.230;4.012;2024-02-26T05:15:17;8.70;99.90
23544;DHT22;11950;51.230;4.012;2024-02-26T05:17:44;8.70;99.90
23544;DHT22;11950;51.230;4.012;2024-02-26T05:20:11;8.70;99.90
23544;DHT22;11950;51.230;4.012;2024-02-26T05:22:37;8.70;99.90
23544;DHT22;11950;51.230;4.012;2024-02-26T05:25:04;8.70;99.90
23544;DHT22;11950;51.230;4.012;2024-02-26T05:27:30;8.70;99.90
23544;DHT22;11950;51.230;4.012;2024-02-26T05:29:56;8.60;99.90
23544;DHT22;11950;51.230;4.012;2024-02-26T05:32:22;8.60;99.90
23544;DHT22;11950;51.230;4.012;2024-02-26T05:34:49;8.60;99.90
23544;DHT22;11950;51.230;4.012;2024-02-26T05:37:15;8.60;99.90
23544;DHT22;11950;51.230;4.012;2024-02-26T05:39:41;8.50;99.90
23544;DHT22;11950;51.230;4.012;2024-02-26T05:42:07;8.50;99.90
23544;DHT22;11950;51.230;4.012;2024-02-26T05:44:35;8.50;99.90
23544;DHT22;11950;51.230;4.012;2024-02-26T05:47:01;8.50;99.90
23544;DHT22;11950;51.230;4.012;2024-02-26T05:49:27;8.50;99.90
23544;DHT22;11950;51.230;4.012;2024-02-26T05:51:53;8.50;99.90
23544;DHT22;11950;51.230;4.012;2024-02-26T05:54:20;8.50;99.90
23544;DHT22;11950;51.230;4.012;2024-02-26T05:56:46;8.50;99.90
23544;DHT22;11950;51.230;4.012;2024-02-26T05:59:12;8.50;99.90
23544;DHT22;11950;51.230;4.012;2024-02-26T06:01:41;8.50;99.90
23544;DHT22;11950;51.230;4.012;2024-02-26T06:04:07;8.50;99.90
23544;DHT22;11950;51.230;4.012;2024-02-26T06:06:34;8.50;99.90
23544;DHT22;11950;51.230;4.012;2024-02-26T06:09:00;8.60;99.90
23544;DHT22;11950;51.230;4.012;2024-02-26T06:11:26;8.50;99.90
23544;DHT22;11950;51.230;4.012;2024-02-26T06:13:53;8.60;99.90
23544;DHT22;11950;51.230;4.012;2024-02-26T06:16:19;8.60;99.90
23544;DHT22;11950;51.230;4.012;2024-02-26T06:18:45;8.50;99.90
23544;DHT22;11950;51.230;4.012;2024-02-26T06:21:12;8.60;99.90
23544;DHT22;11950;51.230;4.012;2024-02-26T06:23:39;8.50;99.90
23544;DHT22;11950;51.230;4.012;2024-02-26T06:26:06;8.40;99.90
23544;DHT22;11950;51.230;4.012;2024-02-26T06:28:32;8.40;99.90
23544;DHT22;11950;51.230;4.012;2024-02-26T06:30:59;8.40;99.90
23544;DHT22;11950;51.230;4.012;2024-02-26T06:33:26;8.40;99.90
23544;DHT22;11950;51.230;4.012;2024-02-26T06:35:52;8.50;99.90
23544;DHT22;11950;51.230;4.012;2024-02-26T06:38:18;8.50;99.90
23544;DHT22;11950;51.230;4.012;2024-02-26T06:40:45;8.40;99.90
23544;DHT22;11950;51.230;4.012;2024-02-26T06:43:12;8.50;99.90
23544;DHT22;11950;51.230;4.012;2024-02-26T06:45:38;8.40;99.90
23544;DHT22;11950;51.230;4.012;2024-02-26T06:48:04;8.40;99.90
23544;DHT22;11950;51.230;4.012;2024-02-26T06:50:31;8.40;99.90
23544;DHT22;11950;51.230;4.012;2024-02-26T06:52:57;8.40;99.90
23544;DHT22;11950;51.230;4.012;2024-02-26T06:55:23;8.40;99.90
23544;DHT22;11950;51.230;4.012;2024-02-26T06:57:49;8.40;99.90
23544;DHT22;11950;51.230;4.012;2024-02-26T07:00:16;8.40;99.90
23544;DHT22;11950;51.230;4.012;2024-02-26T07:02:43;8.40;99.90
23544;DHT22;11950;51.230;4.012;2024-02-26T07:05:09;8.40;99.90
23544;DHT22;11950;51.230;4.012;2024-02-26T07:07:35;8.40;99.90
23544;DHT22;11950;51.230;4.012;2024-02-26T07:10:02;8.40;99.90
23544;DHT22;11950;51.230;4.012;2024-02-26T07:12:31;8.40;99.90
23544;DHT22;11950;51.230;4.012;2024-02-26T07:14:58;8.40;99.90
23544;DHT22;11950;51.230;4.012;2024-02-26T07:17:24;8.40;99.90
23544;DHT22;11950;51.230;4.012;2024-02-26T07:19:50;8.40;99.90
23544;DHT22;11950;51.230;4.012;2024-02-26T07:22:16;8.50;99.90
23544;DHT22;11950;51.230;4.012;2024-02-26T07:24:43;8.40;99.90
23544;DHT22;11950;51.230;4.012;2024-02-26T07:27:09;8.50;99.90
23544;DHT22;11950;51.230;4.012;2024-02-26T07:29:35;8.40;99.90
23544;DHT22;11950;51.230;4.012;2024-02-26T07:32:01;8.50;99.90
23544;DHT22;11950;51.230;4.012;2024-02-26T07:34:28;8.40;99.90
23544;DHT22;11950;51.230;4.012;2024-02-26T07:36:56;8.40;99.90
23544;DHT22;11950;51.230;4.012;2024-02-26T07:39:22;8.50;99.90
23544;DHT22;11950;51.230;4.012;2024-02-26T07:41:49;8.40;99.90
23544;DHT22;11950;51.230;4.012;2024-02-26T07:44:17;8.40;99.90
23544;DHT22;11950;51.230;4.012;2024-02-26T07:46:44;8.40;99.90
23544;DHT22;11950;51.230;4.012;2024-02-26T07:49:11;8.30;99.90
23544;DHT22;11950;51.230;4.012;2024-02-26T07:51:37;8.30;99.90
23544;DHT22;11950;51.230;4.012;2024-02-26T07:54:03;8.30;99.90
23544;DHT22;11950;51.230;4.012;2024-02-26T07:56:29;8.30;99.90
23544;DHT22;11950;51.230;4.012;2024-02-26T07:58:56;8.30;99.90
23544;DHT22;11950;51.230;4.012;2024-02-26T08:01:22;8.40;99.90
23544;DHT22;11950;51.230;4.012;2024-02-26T08:03:48;8.20;99.90
23544;DHT22;11950;51.230;4.012;2024-02-26T08:06:16;8.30;99.90
23544;DHT22;11950;51.230;4.012;2024-02-26T08:08:42;8.30;99.90
23544;DHT22;11950;51.230;4.012;2024-02-26T08:11:10;8.30;99.90
23544;DHT22;11950;51.230;4.012;2024-02-26T08:13:36;8.30;99.90
23544;DHT22;11950;51.230;4.012;2024-02-26T08:16:02;8.30;99.90
23544;DHT22;11950;51.230;4.012;2024-02-26T08:18:29;8.30;99.90
23544;DHT22;11950;51.230;4.012;2024-02-26T08:20:55;8.40;99.90
23544;DHT22;11950;51.230;4.012;2024-02-26T08:23:21;8.40;99.90
23544;DHT22;11950;51.230;4.012;2024-02-26T08:25:48;8.40;99.90
23544;DHT22;11950;51.230;4.012;2024-02-26T08:28:14;8.40;99.90
23544;DHT22;11950;51.230;4.012;2024-02-26T08:30:44;8.30;99.90
23544;DHT22;11950;51.230;4.012;2024-02-26T08:33:10;8.30;99.90
23544;DHT22;11950;51.230;4.012;2024-02-26T08:35:37;8.30;99.90
23544;DHT22;11950;51.230;4.012;2024-02-26T08:38:04;8.30;99.90
23544;DHT22;11950;51.230;4.012;2024-02-26T08:40:30;8.30;99.90
23544;DHT22;11950;51.230;4.012;2024-02-26T08:42:56;8.30;99.90
23544;DHT22;11950;51.230;4.012;2024-02-26T08:45:23;8.40;99.90
23544;DHT22;11950;51.230;4.012;2024-02-26T08:47:50;8.30;99.90
23544;DHT22;11950;51.230;4.012;2024-02-26T08:50:16;8.30;99.90
23544;DHT22;11950;51.230;4.012;2024-02-26T08:52:42;8.20;99.90
23544;DHT22;11950;51.230;4.012;2024-02-26T08:55:09;8.20;99.90
23544;DHT22;11950;51.230;4.012;2024-02-26T08:57:35;8.20;99.90
23544;DHT22;11950;51.230;4.012;2024-02-26T09:00:02;8.20;99.90
23544;DHT22;11950;51.230;4.012;2024-02-26T09:02:28;8.20;99.90
23544;DHT22;11950;51.230;4.012;2024-02-26T09:04:54;8.20;99.90
23544;DHT22;11950;51.230;4.012;2024-02-26T09:07:21;8.20;99.90
23544;DHT22;11950;51.230;4.012;2024-02-26T09:09:48;8.30;99.90
23544;DHT22;11950;51.230;4.012;2024-02-26T09:12:14;8.20;99.90
23544;DHT22;11950;51.230;4.012;2024-02-26T09:14:40;8.30;99.90
23544;DHT22;11950;51.230;4.012;2024-02-26T09:17:07;8.20;99.90
23544;DHT22;11950;51.230;4.012;2024-02-26T09:19:33;8.20;99.90
23544;DHT22;11950;51.230;4.012;2024-02-26T09:21:59;8.20;99.90
23544;DHT22;11950;51.230;4.012;2024-02-26T09:24:26;8.20;99.90
23544;DHT22;11950;51.230;4.012;2024-02-26T09:26:52;8.20;99.90
23544;DHT22;11950;51.230;4.012;2024-02-26T09:29:19;8.20;99.90
23544;DHT22;11950;51.230;4.012;2024-02-26T09:31:45;8.20;99.90
23544;DHT22;11950;51.230;4.012;2024-02-26T09:34:13;8.20;99.90
23544;DHT22;11950;51.230;4.012;2024-02-26T09:36:40;8.20;99.90
23544;DHT22;11950;51.230;4.012;2024-02-26T09:39:06;8.20;99.90
23544;DHT22;11950;51.230;4.012;2024-02-26T09:41:37;8.30;99.90
23544;DHT22;11950;51.230;4.012;2024-02-26T09:44:05;8.20;99.90
23544;DHT22;11950;51.230;4.012;2024-02-26T09:46:31;8.30;99.90
23544;DHT22;11950;51.230;4.012;2024-02-26T09:48:58;8.20;99.90
23544;DHT22;11950;51.230;4.012;2024-02-26T09:51:24;8.30;99.90
23544;DHT22;11950;51.230;4.012;2024-02-26T09:53:52;8.30;99.90
23544;DHT22;11950;51.230;4.012;2024-02-26T09:56:19;8.30;99.90
23544;DHT22;11950;51.230;4.012;2024-02-26T09:58:45;8.30;99.90
23544;DHT22;11950;51.230;4.012;2024-02-26T10:01:17;8.30;99.90
23544;DHT22;11950;51.230;4.012;2024-02-26T10:03:45;8.30;99.90
23544;DHT22;11950;51.230;4.012;2024-02-26T10:06:13;8.20;99.90
23544;DHT22;11950;51.230;4.012;2024-02-26T10:08:40;8.20;99.90
23544;DHT22;11950;51.230;4.012;2024-02-26T10:11:07;8.30;99.90
23544;DHT22;11950;51.230;4.012;2024-02-26T10:13:37;8.30;99.90
23544;DHT22;11950;51.230;4.012;2024-02-26T10:16:04;8.30;99.90
23544;DHT22;11950;51.230;4.012;2024-02-26T10:18:48;8.30;99.90
23544;DHT22;11950;51.230;4.012;2024-02-26T10:21:20;8.20;99.90
23544;DHT22;11950;51.230;4.012;2024-02-26T10:23:47;8.20;99.90
23544;DHT22;11950;51.230;4.012;2024-02-26T10:26:20;8.30;99.90
23544;DHT22;11950;51.230;4.012;2024-02-26T10:28:46;8.30;99.90
23544;DHT22;11950;51.230;4.012;2024-02-26T10:31:16;8.30;99.90
23544;DHT22;11950;51.230;4.012;2024-02-26T10:33:43;8.30;99.90
23544;DHT22;11950;51.230;4.012;2024-02-26T10:36:10;8.30;99.90
23544;DHT22;11950;51.230;4.012;2024-02-26T10:38:37;8.20;99.90
23544;DHT22;11950;51.230;4.012;2024-02-26T10:41:07;8.30;99.90
23544;DHT22;11950;51.230;4.012;2024-02-26T10:43:38;8.30;99.90
23544;DHT22;11950;51.230;4.012;2024-02-26T10:46:05;8.40;99.90
23544;DHT22;11950;51.230;4.012;2024-02-26T10:48:31;8.40;99.90
23544;DHT22;11950;51.230;4.012;2024-02-26T10:50:57;8.40;99.90
23544;DHT22;11950;51.230;4.012;2024-02-26T10:53:29;8.40;99.90
23544;DHT22;11950;51.230;4.012;2024-02-26T10:56:01;8.40;99.90
23544;DHT22;11950;51.230;4.012;2024-02-26T10:58:29;8.40;99.90
23544;DHT22;11950;51.230;4.012;2024-02-26T11:00:57;8.40;99.90
23544;DHT22;11950;51.230;4.012;2024-02-26T11:03:25;8.40;99.90
23544;DHT22;11950;51.230;4.012;2024-02-26T11:05:51;8.40;99.90
23544;DHT22;11950;51.230;4.012;2024-02-26T11:08:18;8.40;99.90
23544;DHT22;11950;51.230;4.012;2024-02-26T11:10:52;8.50;99.90
23544;DHT22;11950;51.230;4.012;2024-02-26T11:13:19;8.40;99.90
23544;DHT22;11950;51.230;4.012;2024-02-26T11:15:47;8.40;99.90
23544;DHT22;11950;51.230;4.012;2024-02-26T11:18:19;8.40;99.90
23544;DHT22;11950;51.230;4.012;2024-02-26T11:20:46;8.50;99.90
23544;DHT22;11950;51.230;4.012;2024-02-26T11:23:14;8.50;99.90
23544;DHT22;11950;51.230;4.012;2024-02-26T11:25:41;8.50;99.90
23544;DHT22;11950;51.230;4.012;2024-02-26T11:28:14;8.50;99.90
23544;DHT22;11950;51.230;4.012;2024-02-26T11:30:44;8.50;99.90
23544;DHT22;11950;51.230;4.012;2024-02-26T11:33:12;8.50;99.90
23544;DHT22;11950;51.230;4.012;2024-02-26T11:35:40;8.40;99.90
23544;DHT22;11950;51.230;4.012;2024-02-26T11:38:06;8.40;99.90
23544;DHT22;11950;51.230;4.012;2024-02-26T11:40:38;8.50;99.90
23544;DHT22;11950;51.230;4.012;2024-02-26T11:43:05;8.40;99.90
23544;DHT22;11950;51.230;4.012;2024-02-26T11:48:20;8.50;99.90
23544;DHT22;11950;51.230;4.012;2024-02-26T11:50:49;8.40;99.90
23544;DHT22;11950;51.230;4.012;2024-02-26T11:53:30;8.40;99.90
23544;DHT22;11950;51.230;4.012;2024-02-26T11:59:11;8.40;99.90
23544;DHT22;11950;51.230;4.012;2024-02-26T12:01:43;8.40;99.90
23544;DHT22;11950;51.230;4.012;2024-02-26T12:04:13;8.40;99.90
23544;DHT22;11950;51.230;4.012;2024-02-26T12:06:42;8.40;99.90
23544;DHT22;11950;51.230;4.012;2024-02-26T12:09:08;8.30;99.90
23544;DHT22;11950;51.230;4.012;2024-02-26T12:11:38;8.30;99.90
23544;DHT22;11950;51.230;4.012;2024-02-26T12:14:07;8.40;99.90
23544;DHT22;11950;51.230;4.012;2024-02-26T12:16:40;8.40;99.90
23544;DHT22;11950;51.230;4.012;2024-02-26T12:19:11;8.40;99.90
23544;DHT22;11950;51.230;4.012;2024-02-26T12:21:38;8.50;99.90
23544;DHT22;11950;51.230;4.012;2024-02-26T12:24:12;8.50;99.90
23544;DHT22;11950;51.230;4.012;2024-02-26T12:26:39;8.60;99.90
23544;DHT22;11950;51.230;4.012;2024-02-26T12:29:05;8.70;99.90
23544;DHT22;11950;51.230;4.012;2024-02-26T12:31:32;8.70;99.90
23544;DHT22;11950;51.230;4.012;2024-02-26T12:34:00;8.80;99.90
23544;DHT22;11950;51.230;4.012;2024-02-26T12:36:27;8.80;99.90
23544;DHT22;11950;51.230;4.012;2024-02-26T12:38:53;9.00;99.90
23544;DHT22;11950;51.230;4.012;2024-02-26T12:41:20;9.00;99.90
23544;DHT22;11950;51.230;4.012;2024-02-26T12:43:47;9.00;99.90
23544;DHT22;11950;51.230;4.012;2024-02-26T12:46:13;9.10;99.90
23544;DHT22;11950;51.230;4.012;2024-02-26T12:48:44;9.10;99.90
23544;DHT22;11950;51.230;4.012;2024-02-26T12:51:12;9.10;99.90
23544;DHT22;11950;51.230;4.012;2024-02-26T12:53:41;9.20;99.90
23544;DHT22;11950;51.230;4.012;2024-02-26T12:56:09;9.20;99.90
23544;DHT22;11950;51.230;4.012;2024-02-26T12:58:36;9.20;99.90
23544;DHT22;11950;51.230;4.012;2024-02-26T13:01:05;9.20;99.90
23544;DHT22;11950;51.230;4.012;2024-02-26T13:03:36;9.20;99.90
23544;DHT22;11950;51.230;4.012;2024-02-26T13:06:03;9.20;99.90
23544;DHT22;11950;51.230;4.012;2024-02-26T13:08:32;9.20;99.90
23544;DHT22;11950;51.230;4.012;2024-02-26T13:10:59;9.20;99.90
23544;DHT22;11950;51.230;4.012;2024-02-26T13:13:26;9.30;99.90
23544;DHT22;11950;51.230;4.012;2024-02-26T13:16:13;9.30;99.90
23544;DHT22;11950;51.230;4.012;2024-02-26T13:18:41;9.30;99.90
23544;DHT22;11950;51.230;4.012;2024-02-26T13:21:09;9.30;99.90
23544;DHT22;11950;51.230;4.012;2024-02-26T13:23:37;9.40;99.90
23544;DHT22;11950;51.230;4.012;2024-02-26T13:26:03;9.30;99.90
23544;DHT22;11950;51.230;4.012;2024-02-26T13:28:30;9.30;99.90
23544;DHT22;11950;51.230;4.012;2024-02-26T13:30:57;9.20;99.90
23544;DHT22;11950;51.230;4.012;2024-02-26T13:33:25;9.20;99.90
23544;DHT22;11950;51.230;4.012;2024-02-26T13:35:52;9.20;99.90
23544;DHT22;11950;51.230;4.012;2024-02-26T13:38:19;9.20;99.90
23544;DHT22;11950;51.230;4.012;2024-02-26T13:40:45;9.20;99.90
23544;DHT22;11950;51.230;4.012;2024-02-26T13:43:12;9.10;99.90
23544;DHT22;11950;51.230;4.012;2024-02-26T13:45:38;9.00;99.90
23544;DHT22;11950;51.230;4.012;2024-02-26T13:48:06;9.00;99.90
23544;DHT22;11950;51.230;4.012;2024-02-26T13:50:33;9.00;99.90
23544;DHT22;11950;51.230;4.012;2024-02-26T13:52:59;9.00;99.90
23544;DHT22;11950;51.230;4.012;2024-02-26T13:55:26;8.90;99.90
23544;DHT22;11950;51.230;4.012;2024-02-26T13:57:55;8.90;99.90
23544;DHT22;11950;51.230;4.012;2024-02-26T14:00:25;8.90;99.90
23544;DHT22;11950;51.230;4.012;2024-02-26T14:02:54;8.90;99.90
23544;DHT22;11950;51.230;4.012;2024-02-26T14:05:20;8.90;99.90
23544;DHT22;11950;51.230;4.012;2024-02-26T14:07:56;8.80;99.90
23544;DHT22;11950;51.230;4.012;2024-02-26T14:10:22;8.80;99.90
23544;DHT22;11950;51.230;4.012;2024-02-26T14:12:49;8.80;99.90
23544;DHT22;11950;51.230;4.012;2024-02-26T14:15:15;8.80;99.90
23544;DHT22;11950;51.230;4.012;2024-02-26T14:17:41;8.80;99.90
23544;DHT22;11950;51.230;4.012;2024-02-26T14:20:09;8.90;99.90
23544;DHT22;11950;51.230;4.012;2024-02-26T14:22:38;8.90;99.90
23544;DHT22;11950;51.230;4.012;2024-02-26T14:25:04;8.90;99.90
23544;DHT22;11950;51.230;4.012;2024-02-26T14:27:31;8.90;99.90
23544;DHT22;11950;51.230;4.012;2024-02-26T14:29:57;8.90;99.90
23544;DHT22;11950;51.230;4.012;2024-02-26T14:32:23;8.90;99.90
23544;DHT22;11950;51.230;4.012;2024-02-26T14:34:49;8.90;99.90
23544;DHT22;11950;51.230;4.012;2024-02-26T14:37:16;8.90;99.90
23544;DHT22;11950;51.230;4.012;2024-02-26T14:39:46;8.90;99.90
23544;DHT22;11950;51.230;4.012;2024-02-26T14:42:13;8.80;99.90
23544;DHT22;11950;51.230;4.012;2024-02-26T14:44:43;8.80;99.90
23544;DHT22;11950;51.230;4.012;2024-02-26T14:47:10;8.80;99.90
23544;DHT22;11950;51.230;4.012;2024-02-26T14:49:37;8.90;99.90
23544;DHT22;11950;51.230;4.012;2024-02-26T14:52:03;8.90;99.90
23544;DHT22;11950;51.230;4.012;2024-02-26T14:54:30;9.00;99.90
23544;DHT22;11950;51.230;4.012;2024-02-26T14:57:04;9.00;99.90
23544;DHT22;11950;51.230;4.012;2024-02-26T14:59:30;9.00;99.90
23544;DHT22;11950;51.230;4.012;2024-02-26T15:01:57;9.10;99.90
23544;DHT22;11950;51.230;4.012;2024-02-26T15:04:26;9.10;99.90
23544;DHT22;11950;51.230;4.012;2024-02-26T15:06:52;9.10;99.90
23544;DHT22;11950;51.230;4.012;2024-02-26T15:09:19;9.10;99.90
23544;DHT22;11950;51.230;4.012;2024-02-26T15:11:45;9.10;99.90
23544;DHT22;11950;51.230;4.012;2024-02-26T15:14:11;9.00;99.90
23544;DHT22;11950;51.230;4.012;2024-02-26T15:16:38;9.00;99.90
23544;DHT22;11950;51.230;4.012;2024-02-26T15:19:04;8.90;99.90
23544;DHT22;11950;51.230;4.012;2024-02-26T15:21:33;8.90;99.90
23544;DHT22;11950;51.230;4.012;2024-02-26T15:23:59;8.90;99.90
23544;DHT22;11950;51.230;4.012;2024-02-26T15:26:25;8.90;99.90
23544;DHT22;11950;51.230;4.012;2024-02-26T15:28:52;8.80;99.90
23544;DHT22;11950;51.230;4.012;2024-02-26T15:31:21;8.90;99.90
23544;DHT22;11950;51.230;4.012;2024-02-26T15:33:48;8.90;99.90
23544;DHT22;11950;51.230;4.012;2024-02-26T15:36:14;9.00;99.90
23544;DHT22;11950;51.230;4.012;2024-02-26T15:38:40;9.00;99.90
23544;DHT22;11950;51.230;4.012;2024-02-26T15:41:14;9.00;99.90
23544;DHT22;11950;51.230;4.012;2024-02-26T15:43:40;9.00;99.90
23544;DHT22;11950;51.230;4.012;2024-02-26T15:46:06;8.90;99.90
23544;DHT22;11950;51.230;4.012;2024-02-26T15:48:33;9.00;99.90